createdAt,value
2022-08-17T00:00:42.789Z,18.60
2022-08-17T00:03:13.654Z,16.60
2022-08-17T00:05:48.587Z,16.67
2022-08-17T00:08:23.586Z,17.40
2022-08-17T00:13:30.896Z,18.25
2022-08-17T00:16:03.288Z,17.25
2022-08-17T00:19:01.979Z,18.02
2022-08-17T00:21:25.274Z,17.35
2022-08-17T00:23:54.598Z,17.67
2022-08-17T00:26:34.492Z,20.40
2022-08-17T00:29:19.416Z,19.05
2022-08-17T00:31:48.901Z,18.38
2022-08-17T00:34:18.874Z,18.33
2022-08-17T00:36:46.754Z,19.40
2022-08-17T00:39:14.581Z,19.33
2022-08-17T00:41:42.858Z,19.55
2022-08-17T00:44:12.140Z,19.92
2022-08-17T00:46:45.369Z,20.50
2022-08-17T00:49:15.899Z,20.08
2022-08-17T00:51:53.821Z,20.45
2022-08-17T00:54:28.559Z,20.70
2022-08-17T00:57:04.503Z,20.73
2022-08-17T00:59:44.261Z,21.90
2022-08-17T01:02:15.584Z,21.88
2022-08-17T01:04:46.179Z,22.02
2022-08-17T01:07:16.566Z,23.05
2022-08-17T01:09:44.566Z,24.45
2022-08-17T01:12:13.027Z,22.02
2022-08-17T01:14:41.551Z,22.27
2022-08-17T01:17:11.040Z,21.70
2022-08-17T01:19:42.602Z,24.10
2022-08-17T01:22:22.226Z,23.83
2022-08-17T01:24:56.389Z,22.98
2022-08-17T01:27:24.414Z,23.50
2022-08-17T01:30:00.360Z,23.67
2022-08-17T01:32:30.428Z,23.60
2022-08-17T01:35:00.697Z,23.58
2022-08-17T01:37:35.456Z,23.80
2022-08-17T01:40:09.366Z,23.80
2022-08-17T01:42:44.679Z,25.33
2022-08-17T01:45:18.340Z,24.13
2022-08-17T01:47:46.413Z,24.27
2022-08-17T01:50:18.834Z,25.20
2022-08-17T01:52:53.610Z,24.45
2022-08-17T01:55:30.938Z,24.33
2022-08-17T01:57:59.002Z,25.48
2022-08-17T02:00:28.147Z,27.65
2022-08-17T02:03:16.656Z,27.00
2022-08-17T02:05:45.197Z,26.63
2022-08-17T02:08:20.399Z,28.65
2022-08-17T02:10:50.087Z,26.77
2022-08-17T02:13:20.016Z,27.27
2022-08-17T02:15:47.966Z,26.40
2022-08-17T02:18:16.309Z,27.67
2022-08-17T02:20:44.425Z,27.08
2022-08-17T02:23:14.764Z,28.90
2022-08-17T02:25:48.500Z,28.88
2022-08-17T02:28:18.897Z,29.00
2022-08-17T02:31:01.517Z,28.70
2022-08-17T02:33:43.275Z,29.73
2022-08-17T02:36:13.395Z,31.98
2022-08-17T02:38:43.544Z,32.53
2022-08-17T02:41:13.753Z,31.15
2022-08-17T02:43:41.833Z,31.33
2022-08-17T02:46:11.045Z,29.75
2022-08-17T02:48:39.917Z,29.85
2022-08-17T02:51:08.255Z,28.45
2022-08-17T02:53:36.481Z,29.63
2022-08-17T02:56:06.461Z,31.25
2022-08-17T02:58:35.844Z,31.08
2022-08-17T03:01:05.966Z,31.75
2022-08-17T03:03:35.145Z,31.63
2022-08-17T03:06:05.482Z,30.08
2022-08-17T03:08:34.093Z,30.83
2022-08-17T03:11:02.045Z,31.70
2022-08-17T03:13:31.891Z,30.35
2022-08-17T03:15:59.768Z,29.63
2022-08-17T03:18:28.059Z,32.70
2022-08-17T03:21:00.451Z,31.80
2022-08-17T03:23:29.592Z,30.92
2022-08-17T03:26:00.275Z,32.00
2022-08-17T03:28:28.762Z,31.25
2022-08-17T03:30:58.420Z,30.15
2022-08-17T03:33:26.238Z,31.02
2022-08-17T03:35:54.568Z,31.38
2022-08-17T03:38:23.256Z,31.10
2022-08-17T03:40:57.472Z,32.78
2022-08-17T03:43:32.169Z,31.67
2022-08-17T03:46:26.982Z,32.92
2022-08-17T03:49:21.676Z,31.65
2022-08-17T03:52:08.467Z,34.08
2022-08-17T03:54:55.240Z,33.97
2022-08-17T03:57:23.292Z,32.65
2022-08-17T03:59:52.776Z,35.75
2022-08-17T04:02:28.455Z,34.83
2022-08-17T04:04:56.881Z,31.57
2022-08-17T04:07:29.187Z,30.65
2022-08-17T04:09:58.082Z,30.88
2022-08-17T04:12:30.821Z,32.58
2022-08-17T04:14:59.600Z,28.85
2022-08-17T04:17:30.840Z,33.30
2022-08-17T04:19:58.648Z,26.90
2022-08-17T04:22:30.310Z,28.98
2022-08-17T04:25:09.681Z,25.90
2022-08-17T04:27:38.840Z,25.45
2022-08-17T04:30:08.825Z,25.52
2022-08-17T04:33:05.526Z,28.05
2022-08-17T04:35:38.651Z,27.88
2022-08-17T04:38:09.460Z,26.92
2022-08-17T04:40:56.277Z,28.13
2022-08-17T04:43:29.399Z,26.58
2022-08-17T04:46:00.683Z,28.33
2022-08-17T04:48:36.338Z,25.42
2022-08-17T04:51:10.363Z,27.35
2022-08-17T04:53:40.459Z,25.65
2022-08-17T04:56:11.725Z,28.10
2022-08-17T04:58:48.027Z,24.55
2022-08-17T05:01:23.599Z,25.13
2022-08-17T05:03:56.477Z,24.88
2022-08-17T05:06:25.349Z,24.77
2022-08-17T05:08:55.112Z,25.67
2022-08-17T05:11:26.427Z,26.52
2022-08-17T05:13:56.689Z,23.80
2022-08-17T05:16:28.738Z,23.42
2022-08-17T05:18:59.190Z,24.23
2022-08-17T05:21:27.963Z,22.67
2022-08-17T05:23:58.640Z,25.83
2022-08-17T05:26:29.297Z,22.55
2022-08-17T05:29:00.610Z,22.25
2022-08-17T05:31:32.085Z,23.90
2022-08-17T05:34:01.415Z,23.77
2022-08-17T05:36:42.368Z,23.23
2022-08-17T05:39:16.892Z,22.33
2022-08-17T05:41:47.666Z,23.58
2022-08-17T05:44:17.231Z,21.83
2022-08-17T05:46:51.659Z,22.40
2022-08-17T05:49:27.660Z,20.15
2022-08-17T05:52:24.092Z,22.83
2022-08-17T05:55:10.455Z,19.92
2022-08-17T05:57:53.592Z,18.92
2022-08-17T06:00:31.170Z,20.58
2022-08-17T06:03:25.830Z,19.38
2022-08-17T06:06:25.380Z,19.35
2022-08-17T06:09:34.212Z,18.50
2022-08-17T06:12:23.638Z,20.60
2022-08-17T06:15:12.722Z,19.58
2022-08-17T06:18:01.975Z,19.95
2022-08-17T06:20:41.215Z,20.73
2022-08-17T06:23:18.228Z,18.67
2022-08-17T06:25:52.264Z,18.23
2022-08-17T06:28:29.230Z,18.67
2022-08-17T06:31:12.896Z,18.55
2022-08-17T06:33:42.651Z,18.75
2022-08-17T06:36:31.991Z,17.77
2022-08-17T06:39:23.596Z,18.92
2022-08-17T06:42:05.475Z,18.13
2022-08-17T06:44:47.576Z,17.60
2022-08-17T06:47:28.445Z,17.30
2022-08-17T06:50:15.339Z,17.13
2022-08-17T06:52:56.109Z,17.30
2022-08-17T06:55:38.315Z,16.63
2022-08-17T06:58:16.095Z,17.48
2022-08-17T07:00:47.782Z,18.50
2022-08-17T07:03:39.645Z,17.95
2022-08-17T07:06:14.597Z,16.88
2022-08-17T07:11:30.675Z,17.52
2022-08-17T07:14:17.127Z,16.63
2022-08-17T07:16:50.633Z,24.35
2022-08-17T07:19:22.668Z,44.28
2022-08-17T07:22:01.157Z,17.63
2022-08-17T07:24:39.332Z,16.73
2022-08-17T07:27:15.089Z,14.27
2022-08-17T07:29:51.239Z,23.77
2022-08-17T07:32:26.305Z,17.35
2022-08-17T07:35:22.963Z,19.23
2022-08-17T07:38:24.820Z,15.27
2022-08-17T07:41:07.172Z,13.25
2022-08-17T07:43:47.830Z,13.20
2022-08-17T07:46:39.007Z,13.27
2022-08-17T07:49:24.291Z,11.93
2022-08-17T07:52:47.522Z,10.52
2022-08-17T07:54:56.125Z,11.13
2022-08-17T07:57:35.177Z,10.55
2022-08-17T08:00:19.728Z,11.95
2022-08-17T08:03:21.800Z,10.02
2022-08-17T08:06:02.034Z,9.57
2022-08-17T08:08:41.381Z,10.20
2022-08-17T08:11:15.107Z,11.27
2022-08-17T08:13:45.535Z,11.25
2022-08-17T08:16:29.611Z,10.57
2022-08-17T08:19:02.415Z,13.27
2022-08-17T08:21:56.403Z,9.55
2022-08-17T08:24:59.114Z,11.45
2022-08-17T08:27:44.393Z,10.90
2022-08-17T08:30:15.929Z,11.35
2022-08-17T08:33:10.604Z,10.73
2022-08-17T08:35:51.388Z,9.82
2022-08-17T08:38:37.126Z,8.02
2022-08-17T08:41:26.326Z,10.13
2022-08-17T08:44:08.363Z,10.05
2022-08-17T08:46:46.944Z,8.48
2022-08-17T08:52:53.990Z,9.45
2022-08-17T08:55:35.458Z,7.72
2022-08-17T08:58:36.246Z,11.82
2022-08-17T09:01:15.669Z,7.53
2022-08-17T09:04:24.821Z,9.77
2022-08-17T09:07:12.910Z,8.77
2022-08-17T09:09:59.394Z,6.63
2022-08-17T09:12:39.287Z,9.45
2022-08-17T09:15:17.598Z,8.90
2022-08-17T09:18:21.265Z,7.35
2022-08-17T09:20:53.190Z,7.22
2022-08-17T09:23:34.180Z,10.98
2022-08-17T09:26:11.854Z,6.25
2022-08-17T09:28:49.285Z,7.63
2022-08-17T09:31:24.021Z,7.05
2022-08-17T09:33:54.391Z,9.18
2022-08-17T09:36:29.301Z,6.43
2022-08-17T09:39:06.324Z,10.30
2022-08-17T09:41:49.238Z,7.53
2022-08-17T09:44:35.840Z,5.90
2022-08-17T09:47:15.184Z,6.53
2022-08-17T09:49:48.387Z,5.32
2022-08-17T09:52:21.902Z,6.38
2022-08-17T09:54:57.569Z,8.00
2022-08-17T09:57:50.412Z,4.70
2022-08-17T10:00:27.462Z,6.03
2022-08-17T10:03:26.505Z,6.88
2022-08-17T10:06:08.219Z,6.03
2022-08-17T10:08:46.678Z,7.88
2022-08-17T10:11:48.268Z,6.53
2022-08-17T10:14:37.723Z,7.82
2022-08-17T10:17:24.583Z,5.82
2022-08-17T10:20:06.569Z,7.15
2022-08-17T10:23:05.469Z,6.30
2022-08-17T10:26:00.685Z,7.05
2022-08-17T10:28:39.429Z,9.73
2022-08-17T10:34:52.478Z,4.93
2022-08-17T10:37:48.932Z,5.38
2022-08-17T10:40:34.234Z,6.10
2022-08-17T10:43:26.823Z,6.88
2022-08-17T10:46:30.562Z,5.38
2022-08-17T10:49:29.335Z,4.78
2022-08-17T10:52:00.700Z,5.38
2022-08-17T10:55:07.883Z,6.57
2022-08-17T10:57:41.764Z,6.90
2022-08-17T11:00:52.592Z,7.28
2022-08-17T11:03:26.129Z,5.85
2022-08-17T11:06:13.990Z,8.07
2022-08-17T11:09:14.593Z,6.50
2022-08-17T11:12:02.762Z,6.32
2022-08-17T11:14:54.764Z,5.63
2022-08-17T11:17:53.445Z,8.00
2022-08-17T11:21:03.502Z,5.40
2022-08-17T11:24:01.400Z,7.38
2022-08-17T11:26:33.993Z,7.35
2022-08-17T11:29:09.158Z,4.65
2022-08-17T11:31:43.486Z,8.98
2022-08-17T11:34:21.185Z,5.07
2022-08-17T11:37:15.732Z,8.38
2022-08-17T11:40:13.476Z,6.50
2022-08-17T11:43:25.569Z,6.90
2022-08-17T11:46:16.842Z,6.43
2022-08-17T11:49:20.751Z,6.28
2022-08-17T11:52:37.307Z,7.95
2022-08-17T11:55:33.861Z,5.75
2022-08-17T11:58:26.501Z,9.75
2022-08-17T12:00:58.617Z,4.75
2022-08-17T12:03:53.821Z,4.68
2022-08-17T12:06:45.415Z,7.03
2022-08-17T12:09:24.428Z,8.05
2022-08-17T12:12:13.224Z,8.57
2022-08-17T12:15:09.741Z,6.18
2022-08-17T12:17:43.051Z,5.03
2022-08-17T12:20:22.013Z,6.32
2022-08-17T12:23:03.969Z,6.07
2022-08-17T12:25:40.766Z,7.40
2022-08-17T12:28:26.707Z,6.50
2022-08-17T12:31:01.490Z,8.60
2022-08-17T12:33:29.862Z,6.65
2022-08-17T12:36:05.776Z,5.78
2022-08-17T12:38:37.619Z,5.95
2022-08-17T12:41:28.525Z,8.82
2022-08-17T12:44:04.423Z,6.40
2022-08-17T12:46:51.457Z,6.75
2022-08-17T12:49:27.373Z,5.57
2022-08-17T12:52:17.617Z,5.88
2022-08-17T12:54:55.664Z,6.90
2022-08-17T12:57:33.379Z,6.40
2022-08-17T13:00:10.900Z,7.65
2022-08-17T13:02:46.351Z,5.82
2022-08-17T13:05:35.931Z,7.57
2022-08-17T13:08:16.174Z,7.53
2022-08-17T13:10:56.451Z,5.50
2022-08-17T13:13:31.611Z,6.72
2022-08-17T13:16:03.416Z,6.43
2022-08-17T13:18:51.727Z,6.55
2022-08-17T13:21:30.536Z,4.38
2022-08-17T13:24:02.138Z,5.25
2022-08-17T13:26:37.546Z,5.63
2022-08-17T13:29:20.758Z,5.75
2022-08-17T13:31:56.385Z,5.00
2022-08-17T13:35:11.814Z,6.15
2022-08-17T13:37:34.519Z,5.68
2022-08-17T13:40:32.146Z,4.53
2022-08-17T13:43:00.199Z,6.35
2022-08-17T13:45:43.395Z,5.00
2022-08-17T13:48:26.718Z,4.65
2022-08-17T13:51:20.249Z,5.53
2022-08-17T13:54:00.532Z,5.40
2022-08-17T13:56:39.534Z,4.00
2022-08-17T13:59:13.626Z,5.18
2022-08-17T14:01:52.801Z,4.53
2022-08-17T14:04:26.414Z,4.68
2022-08-17T14:06:59.544Z,3.90
2022-08-17T14:09:37.042Z,5.25
2022-08-17T14:12:19.682Z,4.03
2022-08-17T14:14:49.481Z,3.75
2022-08-17T14:17:19.431Z,3.15
2022-08-17T14:19:48.071Z,4.22
2022-08-17T14:22:23.657Z,6.25
2022-08-17T14:24:51.909Z,3.55
2022-08-17T14:27:21.523Z,4.35
2022-08-17T14:29:49.372Z,3.55
2022-08-17T14:32:26.886Z,3.00
2022-08-17T14:34:57.545Z,4.35
2022-08-17T14:37:27.996Z,5.25
2022-08-17T14:39:59.767Z,4.57
2022-08-17T14:42:33.007Z,3.28
2022-08-17T14:45:06.147Z,3.78
2022-08-17T14:47:55.266Z,3.05
2022-08-17T14:50:23.758Z,3.53
2022-08-17T14:52:52.262Z,5.00
2022-08-17T14:55:21.499Z,3.97
2022-08-17T14:57:49.527Z,3.78
2022-08-17T15:00:18.060Z,7.00
2022-08-17T15:02:53.592Z,3.95
2022-08-17T15:05:27.353Z,5.40
2022-08-17T15:07:56.717Z,7.15
2022-08-17T15:10:25.859Z,5.65
2022-08-17T15:12:56.090Z,5.63
2022-08-17T15:15:24.415Z,7.60
2022-08-17T15:17:52.556Z,9.98
2022-08-17T15:20:27.816Z,12.52
2022-08-17T15:22:58.647Z,18.45
2022-08-17T15:25:30.242Z,19.45
2022-08-17T15:28:00.759Z,16.10
2022-08-17T15:30:30.658Z,15.80
2022-08-17T15:33:00.759Z,18.45
2022-08-17T15:35:33.854Z,20.25
2022-08-17T15:38:11.264Z,20.55
2022-08-17T15:40:43.091Z,22.50
2022-08-17T15:43:14.737Z,24.65
2022-08-17T15:45:42.960Z,23.58
2022-08-17T15:48:11.302Z,23.90
2022-08-17T15:50:41.174Z,27.77
2022-08-17T15:53:10.403Z,26.80
2022-08-17T15:55:43.022Z,26.70
2022-08-17T15:58:10.912Z,27.63
2022-08-17T16:00:52.966Z,24.55
2022-08-17T16:03:59.273Z,27.88
2022-08-17T16:06:13.651Z,26.50
2022-08-17T16:08:44.512Z,24.92
2022-08-17T16:11:15.064Z,26.23
2022-08-17T16:13:54.538Z,27.48
2022-08-17T16:16:23.709Z,26.48
2022-08-17T16:18:54.528Z,26.90
2022-08-17T16:21:42.728Z,25.52
2022-08-17T16:24:13.655Z,25.05
2022-08-17T16:26:43.236Z,27.33
2022-08-17T16:29:11.582Z,27.05
2022-08-17T16:31:40.545Z,27.75
2022-08-17T16:34:18.025Z,29.80
2022-08-17T16:36:55.221Z,26.35
2022-08-17T16:39:27.287Z,26.95
2022-08-17T16:41:56.525Z,27.10
2022-08-17T16:44:27.367Z,26.20
2022-08-17T16:46:55.878Z,27.95
2022-08-17T16:49:36.918Z,29.73
2022-08-17T16:52:10.379Z,27.17
2022-08-17T16:54:43.445Z,28.05
2022-08-17T16:57:14.282Z,28.20
2022-08-17T16:59:47.812Z,34.22
2022-08-17T17:02:24.849Z,27.73
2022-08-17T17:05:03.225Z,27.60
2022-08-17T17:07:53.438Z,28.33
2022-08-17T17:10:28.340Z,29.02
2022-08-17T17:13:02.745Z,30.00
2022-08-17T17:15:46.266Z,29.02
2022-08-17T17:18:16.869Z,30.33
2022-08-17T17:20:55.294Z,28.15
2022-08-17T17:23:40.571Z,29.42
2022-08-17T17:26:48.298Z,28.23
2022-08-17T17:29:46.491Z,27.50
2022-08-17T17:32:25.458Z,30.58
2022-08-17T17:35:11.736Z,29.70
2022-08-17T17:37:44.762Z,29.27
2022-08-17T17:40:22.918Z,28.48
2022-08-17T17:42:55.309Z,28.65
2022-08-17T17:45:31.200Z,28.85
2022-08-17T17:47:59.170Z,28.55
2022-08-17T17:50:38.358Z,29.77
2022-08-17T17:53:18.544Z,27.42
2022-08-17T17:56:06.957Z,30.42
2022-08-17T17:59:01.499Z,28.88
2022-08-17T18:01:48.743Z,28.52
2022-08-17T18:04:26.612Z,28.25
2022-08-17T18:07:19.393Z,30.92
2022-08-17T18:10:29.506Z,29.00
2022-08-17T18:13:16.463Z,28.77
2022-08-17T18:15:54.056Z,27.85
2022-08-17T18:18:37.638Z,28.83
2022-08-17T18:21:19.587Z,27.13
2022-08-17T18:23:57.796Z,26.30
2022-08-17T18:26:45.082Z,27.33
2022-08-17T18:29:32.333Z,27.55
2022-08-17T18:32:19.341Z,26.60
2022-08-17T18:34:51.600Z,27.17
2022-08-17T18:37:49.018Z,26.60
2022-08-17T18:40:32.647Z,27.60
2022-08-17T18:43:09.159Z,25.88
2022-08-17T18:45:45.801Z,26.08
2022-08-17T18:48:30.191Z,29.48
2022-08-17T18:51:21.158Z,26.83
2022-08-17T18:54:14.123Z,25.67
2022-08-17T18:56:48.176Z,24.95
2022-08-17T18:59:29.008Z,25.25
2022-08-17T19:05:24.733Z,26.27
2022-08-17T19:07:53.247Z,26.00
2022-08-17T19:10:28.700Z,26.90
2022-08-17T19:13:12.765Z,26.73
2022-08-17T19:16:13.955Z,26.98
2022-08-17T19:18:46.184Z,27.33
2022-08-17T19:21:31.310Z,27.27
2022-08-17T19:24:12.050Z,27.45
2022-08-17T19:26:54.532Z,26.70
2022-08-17T19:29:32.270Z,28.05
2022-08-17T19:32:02.525Z,25.45
2022-08-17T19:34:34.977Z,26.63
2022-08-17T19:37:27.178Z,28.00
2022-08-17T19:40:24.387Z,27.23
2022-08-17T19:45:58.171Z,27.17
2022-08-17T19:48:51.374Z,28.30
2022-08-17T19:51:33.919Z,29.48
2022-08-17T19:54:15.034Z,28.48
2022-08-17T19:56:56.447Z,27.75
2022-08-17T19:59:48.875Z,28.45
2022-08-17T20:02:33.555Z,28.77
2022-08-17T20:05:13.352Z,29.13
2022-08-17T20:07:54.082Z,28.55
2022-08-17T20:10:36.436Z,29.17
2022-08-17T20:13:14.900Z,28.95
2022-08-17T20:15:47.067Z,29.33
2022-08-17T20:18:24.747Z,29.80
2022-08-17T20:21:00.504Z,28.83
2022-08-17T20:23:50.518Z,29.20
2022-08-17T20:26:26.419Z,30.90
2022-08-17T20:29:49.626Z,30.20
2022-08-17T20:32:28.584Z,31.13
2022-08-17T20:35:19.680Z,31.60
2022-08-17T20:37:57.354Z,31.55
2022-08-17T20:40:35.150Z,30.83
2022-08-17T20:43:51.002Z,32.83
2022-08-17T20:46:41.392Z,31.20
2022-08-17T20:49:30.585Z,31.23
2022-08-17T20:52:07.572Z,32.47
2022-08-17T20:54:48.238Z,33.35
2022-08-17T20:57:48.756Z,34.03
2022-08-17T21:00:50.063Z,29.60
2022-08-17T21:03:49.192Z,31.42
2022-08-17T21:06:25.617Z,31.95
2022-08-17T21:09:18.633Z,31.25
2022-08-17T21:12:05.513Z,33.67
2022-08-17T21:14:57.983Z,32.83
2022-08-17T21:17:42.137Z,33.47
2022-08-17T21:20:32.328Z,33.75
2022-08-17T21:23:37.259Z,34.75
2022-08-17T21:26:31.179Z,35.00
2022-08-17T21:29:31.547Z,35.58
2022-08-17T21:32:23.709Z,36.33
2022-08-17T21:35:28.839Z,39.45
2022-08-17T21:38:04.862Z,35.10
2022-08-17T21:40:34.350Z,36.30
2022-08-17T21:43:24.028Z,39.45
2022-08-17T21:46:01.964Z,41.33
2022-08-17T21:48:41.992Z,42.17
2022-08-17T21:51:22.733Z,42.55
2022-08-17T21:53:56.912Z,44.42
2022-08-17T21:56:30.845Z,45.57
2022-08-17T21:59:05.338Z,44.50
2022-08-17T22:01:38.626Z,45.05
2022-08-17T22:04:20.685Z,46.47
2022-08-17T22:06:57.111Z,45.05
2022-08-17T22:09:31.489Z,44.83
2022-08-17T22:12:07.673Z,41.72
2022-08-17T22:14:53.190Z,47.00
2022-08-17T22:17:26.143Z,46.97
2022-08-17T22:19:59.646Z,47.85
2022-08-17T22:22:57.099Z,51.08
2022-08-17T22:25:29.481Z,51.08
2022-08-17T22:28:01.950Z,48.47
2022-08-17T22:30:37.147Z,55.28
2022-08-17T22:36:20.236Z,51.28
2022-08-17T22:38:52.353Z,52.88
2022-08-17T22:41:52.562Z,55.15
2022-08-17T22:44:27.411Z,54.58
2022-08-17T22:47:01.709Z,56.22
2022-08-17T22:49:38.461Z,60.10
2022-08-17T22:52:32.702Z,54.53
2022-08-17T22:55:26.307Z,56.63
2022-08-17T22:58:14.234Z,56.30
2022-08-17T23:00:46.993Z,58.20
2022-08-17T23:03:19.997Z,65.30
2022-08-17T23:06:03.887Z,65.18
2022-08-17T23:08:35.527Z,62.92
2022-08-17T23:11:06.242Z,66.45
2022-08-17T23:13:37.194Z,75.00
2022-08-17T23:16:05.054Z,66.47
2022-08-17T23:18:32.876Z,73.03
2022-08-17T23:21:03.749Z,80.13
2022-08-17T23:23:31.602Z,81.72
2022-08-17T23:25:59.469Z,73.93
2022-08-17T23:28:28.438Z,66.88
2022-08-17T23:30:58.216Z,63.60
2022-08-17T23:33:30.900Z,59.85
2022-08-17T23:35:58.795Z,65.80
2022-08-17T23:38:27.680Z,71.03
2022-08-17T23:40:59.975Z,73.00
2022-08-17T23:43:31.470Z,78.55
2022-08-17T23:46:03.603Z,81.22
2022-08-17T23:48:36.271Z,81.63
2022-08-17T23:51:12.282Z,87.93
2022-08-17T23:53:47.565Z,89.68
2022-08-17T23:56:17.989Z,82.93
2022-08-17T23:58:45.793Z,90.18
